Ernest N — A8PQ6 — position and weather

sailwx.info

Track history (hours):
 
Tides and Currents Weather Stations Pressure Air Temp Water Temp Dewpoint Dewpoint Depression Visibility Wind Speed Wind Dir Waves Ship Positions

Ernest N

Last reported at 2017-Nov-14 13:11 UTC. Time now 2017-Nov-25 04:09 UTC.
Position N 26°31' W 093°31'.
Warning: this ship's position is 10 days out of date.

Length 205 m; draft 11.1 m.

Type: Tanker. MMSI: 636013815.

Date/timePositionNaut miles runAvg speedWind from/ knotsBaromVisibWave heightAir tempDewpointWater temp
2017-Nov-14 13:11N 26°31' W 093°31'314.5
2017-Nov-14 13:00N 26°34' W 093°33'714.4
2017-Nov-14 12:29N 26°40' W 093°38'714.5
2017-Nov-14 11:59N 26°45' W 093°43'714.4
2017-Nov-14 11:29N 26°52' W 093°47'714.4
2017-Nov-14 10:59N 26°58' W 093°51'15212.1
2017-Nov-13 22:26N 29°22' W 094°48'511.2
2017-Nov-13 22:00N 29°26' W 094°50'24 0.6
2017-Nov-12 04:41N 29°44' W 095°08'0 0.0
2017-Nov-12 04:30N 29°44' W 095°08'0 0.4
2017-Nov-12 04:00N 29°44' W 095°08'2 4.4
2017-Nov-12 03:31N 29°45' W 095°06'3 6.0
2017-Nov-12 03:01N 29°44' W 095°03'4 8.3
2017-Nov-12 02:30N 29°41' W 094°59'611.2
2017-Nov-12 02:00N 29°36' W 094°57'612.4
2017-Nov-12 01:30N 29°31' W 094°53'612.6
2017-Nov-12 01:00N 29°25' W 094°50'  
Track history (hours):
 
Tides and Currents Weather Stations Pressure Air Temp Water Temp Dewpoint Dewpoint Depression Visibility Wind Speed Wind Dir Waves Ship Positions

Ernest N

Last reported at 2017-Nov-14 13:11 UTC. Time now 2017-Nov-25 04:09 UTC.
Position N 26°31' W 093°31'.
Warning: this ship's position is 10 days out of date.

Length 205 m; draft 11.1 m.

Type: Tanker. MMSI: 636013815.

Date/timePositionNaut miles runAvg speedWind from/ knotsBaromVisibWave heightAir tempDewpointWater temp
2017-Nov-14 13:11N 26°31' W 093°31'314.5
2017-Nov-14 13:00N 26°34' W 093°33'714.4
2017-Nov-14 12:29N 26°40' W 093°38'714.5
2017-Nov-14 11:59N 26°45' W 093°43'714.4
2017-Nov-14 11:29N 26°52' W 093°47'714.4
2017-Nov-14 10:59N 26°58' W 093°51'15212.1
2017-Nov-13 22:26N 29°22' W 094°48'511.2
2017-Nov-13 22:00N 29°26' W 094°50'24 0.6
2017-Nov-12 04:41N 29°44' W 095°08'0 0.0
2017-Nov-12 04:30N 29°44' W 095°08'0 0.4
2017-Nov-12 04:00N 29°44' W 095°08'2 4.4
2017-Nov-12 03:31N 29°45' W 095°06'3 6.0
2017-Nov-12 03:01N 29°44' W 095°03'4 8.3
2017-Nov-12 02:30N 29°41' W 094°59'611.2
2017-Nov-12 02:00N 29°36' W 094°57'612.4
2017-Nov-12 01:30N 29°31' W 094°53'612.6
2017-Nov-12 01:00N 29°25' W 094°50'  

Dump ship's entire track history